sensor_id;sensor_type;location;lat;lon;timestamp;P1;durP1;ratioP1;P2;durP2;ratioP2
54937;SDS011;52756;52.826;6.214;2022-08-06T00:01:51;2.35;;;0.63;;
54937;SDS011;52756;52.826;6.214;2022-08-06T00:04:18;3.22;;;0.65;;
54937;SDS011;52756;52.826;6.214;2022-08-06T00:06:44;3.42;;;0.88;;
54937;SDS011;52756;52.826;6.214;2022-08-06T00:09:10;1.38;;;0.70;;
54937;SDS011;52756;52.826;6.214;2022-08-06T00:11:37;1.75;;;0.68;;
54937;SDS011;52756;52.826;6.214;2022-08-06T00:14:03;1.95;;;0.57;;
54937;SDS011;52756;52.826;6.214;2022-08-06T00:16:29;1.38;;;0.70;;
54937;SDS011;52756;52.826;6.214;2022-08-06T00:18:55;1.52;;;0.70;;
54937;SDS011;52756;52.826;6.214;2022-08-06T00:21:21;1.77;;;0.60;;
54937;SDS011;52756;52.826;6.214;2022-08-06T00:23:46;2.95;;;0.70;;
54937;SDS011;52756;52.826;6.214;2022-08-06T00:26:12;2.90;;;0.70;;
54937;SDS011;52756;52.826;6.214;2022-08-06T00:28:38;1.35;;;0.80;;
54937;SDS011;52756;52.826;6.214;2022-08-06T00:31:04;1.83;;;0.60;;
54937;SDS011;52756;52.826;6.214;2022-08-06T00:33:30;2.15;;;0.70;;
54937;SDS011;52756;52.826;6.214;2022-08-06T00:35:56;1.48;;;0.70;;
54937;SDS011;52756;52.826;6.214;2022-08-06T00:38:22;1.20;;;0.50;;
54937;SDS011;52756;52.826;6.214;2022-08-06T00:40:48;2.35;;;0.80;;
54937;SDS011;52756;52.826;6.214;2022-08-06T00:43:14;1.95;;;0.55;;
54937;SDS011;52756;52.826;6.214;2022-08-06T00:45:40;2.05;;;0.70;;
54937;SDS011;52756;52.826;6.214;2022-08-06T00:48:06;2.20;;;0.75;;
54937;SDS011;52756;52.826;6.214;2022-08-06T00:50:32;2.50;;;0.70;;
54937;SDS011;52756;52.826;6.214;2022-08-06T00:53:00;3.67;;;1.05;;
54937;SDS011;52756;52.826;6.214;2022-08-06T00:55:26;2.17;;;0.70;;
54937;SDS011;52756;52.826;6.214;2022-08-06T00:57:52;1.98;;;0.55;;
54937;SDS011;52756;52.826;6.214;2022-08-06T01:00:18;1.85;;;0.70;;
54937;SDS011;52756;52.826;6.214;2022-08-06T01:02:44;2.30;;;0.80;;
54937;SDS011;52756;52.826;6.214;2022-08-06T01:05:10;2.17;;;0.60;;
54937;SDS011;52756;52.826;6.214;2022-08-06T01:07:35;1.45;;;0.68;;
54937;SDS011;52756;52.826;6.214;2022-08-06T01:10:02;1.48;;;0.50;;
54937;SDS011;52756;52.826;6.214;2022-08-06T01:12:28;2.55;;;0.70;;
54937;SDS011;52756;52.826;6.214;2022-08-06T01:14:54;1.65;;;0.80;;
54937;SDS011;52756;52.826;6.214;2022-08-06T01:17:22;2.65;;;0.88;;
54937;SDS011;52756;52.826;6.214;2022-08-06T01:27:52;0.93;;;0.47;;
54937;SDS011;52756;52.826;6.214;2022-08-06T01:30:35;1.35;;;0.60;;
54937;SDS011;52756;52.826;6.214;2022-08-06T01:33:25;1.15;;;0.70;;
54937;SDS011;52756;52.826;6.214;2022-08-06T01:35:56;1.67;;;0.60;;
54937;SDS011;52756;52.826;6.214;2022-08-06T01:38:32;1.45;;;0.65;;
54937;SDS011;52756;52.826;6.214;2022-08-06T01:41:02;3.70;;;0.80;;
54937;SDS011;52756;52.826;6.214;2022-08-06T01:43:31;2.22;;;0.57;;
54937;SDS011;52756;52.826;6.214;2022-08-06T01:45:59;1.33;;;0.70;;
54937;SDS011;52756;52.826;6.214;2022-08-06T01:48:26;0.93;;;0.60;;
54937;SDS011;52756;52.826;6.214;2022-08-06T01:50:57;0.98;;;0.50;;
54937;SDS011;52756;52.826;6.214;2022-08-06T01:53:28;2.75;;;0.82;;
54937;SDS011;52756;52.826;6.214;2022-08-06T01:55:58;1.25;;;0.63;;
54937;SDS011;52756;52.826;6.214;2022-08-06T01:58:27;1.52;;;0.60;;
54937;SDS011;52756;52.826;6.214;2022-08-06T02:00:55;1.02;;;0.60;;
54937;SDS011;52756;52.826;6.214;2022-08-06T02:03:24;0.73;;;0.35;;
54937;SDS011;52756;52.826;6.214;2022-08-06T02:05:55;2.90;;;0.80;;
54937;SDS011;52756;52.826;6.214;2022-08-06T02:08:24;1.63;;;0.70;;
54937;SDS011;52756;52.826;6.214;2022-08-06T02:10:52;2.20;;;0.77;;
54937;SDS011;52756;52.826;6.214;2022-08-06T02:13:19;2.22;;;0.70;;
54937;SDS011;52756;52.826;6.214;2022-08-06T02:15:47;2.60;;;0.65;;
54937;SDS011;52756;52.826;6.214;2022-08-06T02:18:15;1.90;;;0.80;;
54937;SDS011;52756;52.826;6.214;2022-08-06T02:20:45;1.27;;;0.70;;
54937;SDS011;52756;52.826;6.214;2022-08-06T02:23:18;2.25;;;0.75;;
54937;SDS011;52756;52.826;6.214;2022-08-06T02:25:48;1.20;;;0.60;;
54937;SDS011;52756;52.826;6.214;2022-08-06T02:28:16;1.17;;;0.57;;
54937;SDS011;52756;52.826;6.214;2022-08-06T02:30:46;1.25;;;0.63;;
54937;SDS011;52756;52.826;6.214;2022-08-06T02:33:14;4.55;;;1.25;;
54937;SDS011;52756;52.826;6.214;2022-08-06T02:35:46;1.25;;;0.60;;
54937;SDS011;52756;52.826;6.214;2022-08-06T02:40:53;2.28;;;0.50;;
54937;SDS011;52756;52.826;6.214;2022-08-06T02:43:23;2.75;;;0.70;;
54937;SDS011;52756;52.826;6.214;2022-08-06T02:45:59;1.33;;;0.70;;
54937;SDS011;52756;52.826;6.214;2022-08-06T02:48:51;1.60;;;0.80;;
54937;SDS011;52756;52.826;6.214;2022-08-06T02:51:35;2.15;;;1.13;;
54937;SDS011;52756;52.826;6.214;2022-08-06T02:56:44;1.77;;;0.90;;
54937;SDS011;52756;52.826;6.214;2022-08-06T02:59:13;1.67;;;0.82;;
54937;SDS011;52756;52.826;6.214;2022-08-06T03:01:43;1.63;;;0.80;;
54937;SDS011;52756;52.826;6.214;2022-08-06T03:04:14;1.35;;;0.70;;
54937;SDS011;52756;52.826;6.214;2022-08-06T03:06:42;1.00;;;0.60;;
54937;SDS011;52756;52.826;6.214;2022-08-06T03:09:10;2.05;;;0.90;;
54937;SDS011;52756;52.826;6.214;2022-08-06T03:11:39;1.55;;;0.80;;
54937;SDS011;52756;52.826;6.214;2022-08-06T03:14:07;1.48;;;1.00;;
54937;SDS011;52756;52.826;6.214;2022-08-06T03:16:35;2.15;;;1.10;;
54937;SDS011;52756;52.826;6.214;2022-08-06T03:19:03;1.63;;;1.10;;
54937;SDS011;52756;52.826;6.214;2022-08-06T03:21:30;1.75;;;0.95;;
54937;SDS011;52756;52.826;6.214;2022-08-06T03:23:58;1.73;;;1.02;;
54937;SDS011;52756;52.826;6.214;2022-08-06T03:26:25;1.98;;;1.10;;
54937;SDS011;52756;52.826;6.214;2022-08-06T03:28:54;2.13;;;1.00;;
54937;SDS011;52756;52.826;6.214;2022-08-06T03:31:22;2.67;;;1.30;;
54937;SDS011;52756;52.826;6.214;2022-08-06T03:33:49;2.60;;;1.20;;
54937;SDS011;52756;52.826;6.214;2022-08-06T03:36:16;2.25;;;1.17;;
54937;SDS011;52756;52.826;6.214;2022-08-06T03:38:49;1.67;;;1.13;;
54937;SDS011;52756;52.826;6.214;2022-08-06T03:41:26;1.40;;;1.02;;
54937;SDS011;52756;52.826;6.214;2022-08-06T03:43:55;1.92;;;1.23;;
54937;SDS011;52756;52.826;6.214;2022-08-06T03:49:38;1.17;;;0.90;;
54937;SDS011;52756;52.826;6.214;2022-08-06T03:52:26;2.30;;;0.93;;
54937;SDS011;52756;52.826;6.214;2022-08-06T03:54:55;2.60;;;0.90;;
54937;SDS011;52756;52.826;6.214;2022-08-06T03:57:25;1.17;;;0.90;;
54937;SDS011;52756;52.826;6.214;2022-08-06T03:59:56;1.58;;;1.00;;
54937;SDS011;52756;52.826;6.214;2022-08-06T04:02:46;1.52;;;1.00;;
54937;SDS011;52756;52.826;6.214;2022-08-06T04:05:18;1.73;;;0.70;;
54937;SDS011;52756;52.826;6.214;2022-08-06T04:07:53;1.27;;;0.88;;
54937;SDS011;52756;52.826;6.214;2022-08-06T04:10:20;1.55;;;0.80;;
54937;SDS011;52756;52.826;6.214;2022-08-06T04:12:48;1.95;;;1.10;;
54937;SDS011;52756;52.826;6.214;2022-08-06T04:15:14;1.75;;;0.98;;
54937;SDS011;52756;52.826;6.214;2022-08-06T04:17:41;1.80;;;0.95;;
54937;SDS011;52756;52.826;6.214;2022-08-06T04:20:13;3.25;;;1.15;;
54937;SDS011;52756;52.826;6.214;2022-08-06T04:22:41;2.45;;;1.40;;
54937;SDS011;52756;52.826;6.214;2022-08-06T04:25:07;2.22;;;1.38;;
54937;SDS011;52756;52.826;6.214;2022-08-06T04:27:35;2.72;;;1.58;;
54937;SDS011;52756;52.826;6.214;2022-08-06T04:30:03;2.55;;;1.42;;
54937;SDS011;52756;52.826;6.214;2022-08-06T04:32:30;2.50;;;1.50;;
54937;SDS011;52756;52.826;6.214;2022-08-06T04:34:59;1.88;;;1.40;;
54937;SDS011;52756;52.826;6.214;2022-08-06T04:37:28;1.65;;;1.10;;
54937;SDS011;52756;52.826;6.214;2022-08-06T04:39:55;2.10;;;1.60;;
54937;SDS011;52756;52.826;6.214;2022-08-06T04:42:21;2.40;;;1.70;;
54937;SDS011;52756;52.826;6.214;2022-08-06T04:44:47;1.92;;;1.25;;
54937;SDS011;52756;52.826;6.214;2022-08-06T04:47:13;2.65;;;1.35;;
54937;SDS011;52756;52.826;6.214;2022-08-06T04:49:40;1.85;;;1.30;;
54937;SDS011;52756;52.826;6.214;2022-08-06T04:52:06;1.42;;;1.23;;
54937;SDS011;52756;52.826;6.214;2022-08-06T04:54:31;2.83;;;2.00;;
54937;SDS011;52756;52.826;6.214;2022-08-06T04:56:57;2.60;;;1.60;;
54937;SDS011;52756;52.826;6.214;2022-08-06T04:59:22;3.63;;;2.10;;
54937;SDS011;52756;52.826;6.214;2022-08-06T05:01:48;3.80;;;2.17;;
54937;SDS011;52756;52.826;6.214;2022-08-06T05:04:14;3.28;;;1.80;;
54937;SDS011;52756;52.826;6.214;2022-08-06T05:09:13;5.55;;;2.22;;
54937;SDS011;52756;52.826;6.214;2022-08-06T05:11:43;2.92;;;1.80;;
54937;SDS011;52756;52.826;6.214;2022-08-06T05:14:15;5.13;;;2.10;;
54937;SDS011;52756;52.826;6.214;2022-08-06T05:16:44;3.95;;;1.92;;
54937;SDS011;52756;52.826;6.214;2022-08-06T05:19:17;2.72;;;1.85;;
54937;SDS011;52756;52.826;6.214;2022-08-06T05:21:48;2.40;;;1.77;;
54937;SDS011;52756;52.826;6.214;2022-08-06T05:24:15;3.55;;;1.63;;
54937;SDS011;52756;52.826;6.214;2022-08-06T05:26:41;2.70;;;1.30;;
54937;SDS011;52756;52.826;6.214;2022-08-06T05:29:07;2.75;;;1.50;;
54937;SDS011;52756;52.826;6.214;2022-08-06T05:31:34;3.05;;;1.40;;
54937;SDS011;52756;52.826;6.214;2022-08-06T05:34:01;2.65;;;1.40;;
54937;SDS011;52756;52.826;6.214;2022-08-06T05:36:28;1.83;;;1.27;;
54937;SDS011;52756;52.826;6.214;2022-08-06T05:38:54;3.28;;;1.63;;
54937;SDS011;52756;52.826;6.214;2022-08-06T05:41:19;1.98;;;1.40;;
54937;SDS011;52756;52.826;6.214;2022-08-06T05:43:45;2.72;;;1.50;;
54937;SDS011;52756;52.826;6.214;2022-08-06T05:46:13;2.03;;;1.48;;
54937;SDS011;52756;52.826;6.214;2022-08-06T05:51:40;3.85;;;1.95;;
54937;SDS011;52756;52.826;6.214;2022-08-06T05:57:09;2.40;;;1.42;;
54937;SDS011;52756;52.826;6.214;2022-08-06T05:59:41;3.05;;;1.35;;
54937;SDS011;52756;52.826;6.214;2022-08-06T06:02:13;3.47;;;1.98;;
54937;SDS011;52756;52.826;6.214;2022-08-06T06:04:40;4.20;;;1.70;;
54937;SDS011;52756;52.826;6.214;2022-08-06T06:07:09;2.22;;;1.23;;
54937;SDS011;52756;52.826;6.214;2022-08-06T06:09:35;4.80;;;1.95;;
54937;SDS011;52756;52.826;6.214;2022-08-06T06:12:02;1.75;;;1.13;;
54937;SDS011;52756;52.826;6.214;2022-08-06T06:17:13;2.90;;;1.02;;
54937;SDS011;52756;52.826;6.214;2022-08-06T06:20:10;3.10;;;1.00;;
54937;SDS011;52756;52.826;6.214;2022-08-06T06:30:56;2.30;;;1.10;;
54937;SDS011;52756;52.826;6.214;2022-08-06T06:33:44;3.55;;;1.27;;
54937;SDS011;52756;52.826;6.214;2022-08-06T06:36:35;2.00;;;0.90;;
54937;SDS011;52756;52.826;6.214;2022-08-06T06:45:12;2.65;;;0.70;;
54937;SDS011;52756;52.826;6.214;2022-08-06T06:47:52;1.90;;;0.60;;
54937;SDS011;52756;52.826;6.214;2022-08-06T06:50:29;1.20;;;0.45;;
54937;SDS011;52756;52.826;6.214;2022-08-06T06:52:59;1.70;;;0.45;;
54937;SDS011;52756;52.826;6.214;2022-08-06T06:55:28;1.70;;;0.50;;
54937;SDS011;52756;52.826;6.214;2022-08-06T06:58:07;1.90;;;0.40;;
54937;SDS011;52756;52.826;6.214;2022-08-06T07:00:37;2.65;;;0.47;;
54937;SDS011;52756;52.826;6.214;2022-08-06T07:03:04;3.15;;;0.47;;
54937;SDS011;52756;52.826;6.214;2022-08-06T07:05:32;2.05;;;0.50;;
54937;SDS011;52756;52.826;6.214;2022-08-06T07:08:01;3.30;;;0.45;;
54937;SDS011;52756;52.826;6.214;2022-08-06T07:10:29;1.95;;;0.57;;
54937;SDS011;52756;52.826;6.214;2022-08-06T07:12:57;1.00;;;0.30;;
54937;SDS011;52756;52.826;6.214;2022-08-06T07:15:24;0.75;;;0.30;;
54937;SDS011;52756;52.826;6.214;2022-08-06T07:17:51;1.70;;;0.40;;
54937;SDS011;52756;52.826;6.214;2022-08-06T07:20:20;1.70;;;0.40;;
54937;SDS011;52756;52.826;6.214;2022-08-06T07:22:49;2.35;;;0.47;;
54937;SDS011;52756;52.826;6.214;2022-08-06T07:25:17;1.67;;;0.40;;
54937;SDS011;52756;52.826;6.214;2022-08-06T07:27:48;1.55;;;0.40;;
54937;SDS011;52756;52.826;6.214;2022-08-06T07:30:16;1.88;;;0.57;;
54937;SDS011;52756;52.826;6.214;2022-08-06T07:32:44;2.53;;;0.52;;
54937;SDS011;52756;52.826;6.214;2022-08-06T07:35:11;1.52;;;0.40;;
54937;SDS011;52756;52.826;6.214;2022-08-06T07:37:40;3.65;;;0.38;;
54937;SDS011;52756;52.826;6.214;2022-08-06T07:40:10;2.65;;;0.73;;
54937;SDS011;52756;52.826;6.214;2022-08-06T07:42:45;1.55;;;0.50;;
54937;SDS011;52756;52.826;6.214;2022-08-06T07:45:13;2.50;;;0.50;;
54937;SDS011;52756;52.826;6.214;2022-08-06T07:47:42;1.45;;;0.45;;
54937;SDS011;52756;52.826;6.214;2022-08-06T07:50:12;2.47;;;0.60;;
54937;SDS011;52756;52.826;6.214;2022-08-06T07:52:39;2.05;;;0.70;;
54937;SDS011;52756;52.826;6.214;2022-08-06T07:55:06;2.55;;;0.80;;
54937;SDS011;52756;52.826;6.214;2022-08-06T07:57:35;2.15;;;0.63;;
54937;SDS011;52756;52.826;6.214;2022-08-06T08:00:02;1.58;;;0.60;;
54937;SDS011;52756;52.826;6.214;2022-08-06T08:02:29;3.95;;;0.90;;
54937;SDS011;52756;52.826;6.214;2022-08-06T08:04:55;3.10;;;0.70;;
54937;SDS011;52756;52.826;6.214;2022-08-06T08:07:40;1.75;;;0.50;;
54937;SDS011;52756;52.826;6.214;2022-08-06T08:10:06;2.55;;;0.50;;
54937;SDS011;52756;52.826;6.214;2022-08-06T08:12:33;1.23;;;0.63;;
54937;SDS011;52756;52.826;6.214;2022-08-06T08:15:02;3.13;;;0.80;;
54937;SDS011;52756;52.826;6.214;2022-08-06T08:17:29;1.75;;;0.68;;
54937;SDS011;52756;52.826;6.214;2022-08-06T08:19:55;3.78;;;1.00;;
54937;SDS011;52756;52.826;6.214;2022-08-06T08:22:33;2.10;;;0.50;;
54937;SDS011;52756;52.826;6.214;2022-08-06T08:24:59;2.13;;;0.50;;
54937;SDS011;52756;52.826;6.214;2022-08-06T08:27:25;2.72;;;0.73;;
54937;SDS011;52756;52.826;6.214;2022-08-06T08:29:50;1.85;;;0.60;;
54937;SDS011;52756;52.826;6.214;2022-08-06T08:32:17;1.75;;;0.68;;
54937;SDS011;52756;52.826;6.214;2022-08-06T08:34:43;1.33;;;0.70;;
54937;SDS011;52756;52.826;6.214;2022-08-06T08:37:08;1.45;;;0.52;;
54937;SDS011;52756;52.826;6.214;2022-08-06T08:39:34;2.30;;;0.93;;
54937;SDS011;52756;52.826;6.214;2022-08-06T08:44:33;2.53;;;0.80;;
54937;SDS011;52756;52.826;6.214;2022-08-06T08:47:00;1.10;;;0.70;;
54937;SDS011;52756;52.826;6.214;2022-08-06T08:49:39;3.67;;;0.93;;
54937;SDS011;52756;52.826;6.214;2022-08-06T08:52:12;1.63;;;0.75;;
54937;SDS011;52756;52.826;6.214;2022-08-06T08:54:54;2.20;;;1.00;;
54937;SDS011;52756;52.826;6.214;2022-08-06T08:57:23;2.15;;;1.08;;
54937;SDS011;52756;52.826;6.214;2022-08-06T08:59:51;1.88;;;1.10;;
54937;SDS011;52756;52.826;6.214;2022-08-06T09:02:17;2.05;;;0.85;;
54937;SDS011;52756;52.826;6.214;2022-08-06T09:04:43;4.97;;;1.45;;
54937;SDS011;52756;52.826;6.214;2022-08-06T09:07:09;2.78;;;1.15;;
54937;SDS011;52756;52.826;6.214;2022-08-06T09:09:36;2.72;;;0.98;;
54937;SDS011;52756;52.826;6.214;2022-08-06T09:12:04;2.30;;;1.30;;
54937;SDS011;52756;52.826;6.214;2022-08-06T09:14:31;2.55;;;1.10;;
54937;SDS011;52756;52.826;6.214;2022-08-06T09:16:57;2.65;;;1.00;;
54937;SDS011;52756;52.826;6.214;2022-08-06T09:19:24;3.05;;;1.35;;
54937;SDS011;52756;52.826;6.214;2022-08-06T09:21:54;3.45;;;1.10;;
54937;SDS011;52756;52.826;6.214;2022-08-06T09:24:21;3.00;;;1.30;;
54937;SDS011;52756;52.826;6.214;2022-08-06T09:27:07;2.10;;;1.08;;
54937;SDS011;52756;52.826;6.214;2022-08-06T09:29:48;2.20;;;1.00;;
54937;SDS011;52756;52.826;6.214;2022-08-06T09:32:34;3.63;;;1.30;;
54937;SDS011;52756;52.826;6.214;2022-08-06T09:35:00;2.05;;;1.10;;
54937;SDS011;52756;52.826;6.214;2022-08-06T09:37:29;4.70;;;1.20;;
54937;SDS011;52756;52.826;6.214;2022-08-06T09:39:55;2.13;;;1.33;;
54937;SDS011;52756;52.826;6.214;2022-08-06T09:42:37;2.42;;;1.45;;
54937;SDS011;52756;52.826;6.214;2022-08-06T09:45:06;2.33;;;1.10;;
54937;SDS011;52756;52.826;6.214;2022-08-06T09:47:33;3.53;;;1.33;;
54937;SDS011;52756;52.826;6.214;2022-08-06T09:49:59;4.03;;;1.20;;
54937;SDS011;52756;52.826;6.214;2022-08-06T09:52:25;2.33;;;1.10;;
54937;SDS011;52756;52.826;6.214;2022-08-06T09:54:50;2.55;;;1.13;;
54937;SDS011;52756;52.826;6.214;2022-08-06T09:57:16;3.50;;;1.38;;
54937;SDS011;52756;52.826;6.214;2022-08-06T09:59:46;3.17;;;1.15;;
54937;SDS011;52756;52.826;6.214;2022-08-06T10:02:13;2.85;;;1.77;;
54937;SDS011;52756;52.826;6.214;2022-08-06T10:04:40;1.80;;;1.30;;
54937;SDS011;52756;52.826;6.214;2022-08-06T10:07:06;1.70;;;1.48;;
54937;SDS011;52756;52.826;6.214;2022-08-06T10:09:32;1.88;;;1.20;;
54937;SDS011;52756;52.826;6.214;2022-08-06T10:11:59;3.50;;;1.63;;
54937;SDS011;52756;52.826;6.214;2022-08-06T10:14:28;2.40;;;1.30;;
54937;SDS011;52756;52.826;6.214;2022-08-06T10:17:06;3.13;;;1.33;;
54937;SDS011;52756;52.826;6.214;2022-08-06T10:19:34;3.92;;;1.48;;
54937;SDS011;52756;52.826;6.214;2022-08-06T10:22:05;1.85;;;1.13;;
54937;SDS011;52756;52.826;6.214;2022-08-06T10:24:33;2.70;;;1.50;;
54937;SDS011;52756;52.826;6.214;2022-08-06T10:27:06;1.48;;;1.23;;
54937;SDS011;52756;52.826;6.214;2022-08-06T10:29:33;1.88;;;1.15;;
54937;SDS011;52756;52.826;6.214;2022-08-06T10:32:02;2.17;;;1.25;;
54937;SDS011;52756;52.826;6.214;2022-08-06T10:34:30;3.30;;;1.30;;
54937;SDS011;52756;52.826;6.214;2022-08-06T10:37:01;3.25;;;1.23;;
54937;SDS011;52756;52.826;6.214;2022-08-06T10:39:32;2.80;;;1.20;;
54937;SDS011;52756;52.826;6.214;2022-08-06T10:42:01;2.45;;;1.40;;
54937;SDS011;52756;52.826;6.214;2022-08-06T10:44:29;3.17;;;1.02;;
54937;SDS011;52756;52.826;6.214;2022-08-06T10:46:55;2.17;;;1.13;;
54937;SDS011;52756;52.826;6.214;2022-08-06T10:49:21;2.20;;;1.48;;
54937;SDS011;52756;52.826;6.214;2022-08-06T10:51:48;1.33;;;0.88;;
54937;SDS011;52756;52.826;6.214;2022-08-06T10:54:17;2.03;;;1.35;;
54937;SDS011;52756;52.826;6.214;2022-08-06T10:56:47;3.65;;;1.40;;
54937;SDS011;52756;52.826;6.214;2022-08-06T10:59:14;2.58;;;1.20;;
54937;SDS011;52756;52.826;6.214;2022-08-06T11:04:57;2.80;;;1.20;;
54937;SDS011;52756;52.826;6.214;2022-08-06T11:10:47;2.83;;;0.98;;
54937;SDS011;52756;52.826;6.214;2022-08-06T11:13:39;2.95;;;1.30;;
54937;SDS011;52756;52.826;6.214;2022-08-06T11:16:27;2.28;;;1.23;;
54937;SDS011;52756;52.826;6.214;2022-08-06T11:19:00;3.42;;;1.60;;
54937;SDS011;52756;52.826;6.214;2022-08-06T11:21:35;3.35;;;1.30;;
54937;SDS011;52756;52.826;6.214;2022-08-06T11:24:06;3.17;;;1.35;;
54937;SDS011;52756;52.826;6.214;2022-08-06T11:26:34;3.35;;;1.23;;
54937;SDS011;52756;52.826;6.214;2022-08-06T11:29:05;3.10;;;1.30;;
54937;SDS011;52756;52.826;6.214;2022-08-06T11:34:07;3.08;;;1.33;;
54937;SDS011;52756;52.826;6.214;2022-08-06T11:36:52;2.83;;;1.70;;
54937;SDS011;52756;52.826;6.214;2022-08-06T11:39:25;2.78;;;1.50;;
54937;SDS011;52756;52.826;6.214;2022-08-06T11:41:56;2.38;;;1.70;;
54937;SDS011;52756;52.826;6.214;2022-08-06T11:44:28;2.08;;;1.20;;
54937;SDS011;52756;52.826;6.214;2022-08-06T11:47:07;1.60;;;1.15;;
54937;SDS011;52756;52.826;6.214;2022-08-06T11:49:44;2.17;;;1.10;;
54937;SDS011;52756;52.826;6.214;2022-08-06T11:57:25;3.05;;;1.33;;
54937;SDS011;52756;52.826;6.214;2022-08-06T12:05:04;2.05;;;1.30;;
54937;SDS011;52756;52.826;6.214;2022-08-06T12:07:31;1.92;;;1.05;;
54937;SDS011;52756;52.826;6.214;2022-08-06T12:10:00;2.35;;;1.30;;
54937;SDS011;52756;52.826;6.214;2022-08-06T12:17:29;3.67;;;1.27;;
54937;SDS011;52756;52.826;6.214;2022-08-06T12:19:57;3.58;;;1.30;;
54937;SDS011;52756;52.826;6.214;2022-08-06T12:22:27;4.20;;;2.00;;
54937;SDS011;52756;52.826;6.214;2022-08-06T12:24:57;4.10;;;1.73;;
54937;SDS011;52756;52.826;6.214;2022-08-06T12:27:29;2.25;;;1.52;;
54937;SDS011;52756;52.826;6.214;2022-08-06T12:29:59;2.38;;;1.45;;
54937;SDS011;52756;52.826;6.214;2022-08-06T12:32:29;1.98;;;1.20;;
54937;SDS011;52756;52.826;6.214;2022-08-06T12:34:57;2.08;;;1.20;;
54937;SDS011;52756;52.826;6.214;2022-08-06T12:37:32;2.80;;;1.27;;
54937;SDS011;52756;52.826;6.214;2022-08-06T12:40:03;2.35;;;1.13;;
54937;SDS011;52756;52.826;6.214;2022-08-06T12:42:52;3.28;;;1.80;;
54937;SDS011;52756;52.826;6.214;2022-08-06T12:45:24;1.90;;;1.13;;
54937;SDS011;52756;52.826;6.214;2022-08-06T12:48:01;3.28;;;1.70;;
54937;SDS011;52756;52.826;6.214;2022-08-06T12:50:28;2.53;;;1.20;;
54937;SDS011;52756;52.826;6.214;2022-08-06T12:53:00;1.80;;;1.17;;
54937;SDS011;52756;52.826;6.214;2022-08-06T12:55:26;2.72;;;1.25;;
54937;SDS011;52756;52.826;6.214;2022-08-06T12:57:54;1.95;;;1.20;;
54937;SDS011;52756;52.826;6.214;2022-08-06T13:00:20;3.70;;;1.33;;
54937;SDS011;52756;52.826;6.214;2022-08-06T13:02:47;1.60;;;1.13;;
54937;SDS011;52756;52.826;6.214;2022-08-06T13:05:14;2.60;;;1.30;;
54937;SDS011;52756;52.826;6.214;2022-08-06T13:07:40;3.25;;;1.30;;
54937;SDS011;52756;52.826;6.214;2022-08-06T13:10:08;3.40;;;1.27;;
54937;SDS011;52756;52.826;6.214;2022-08-06T13:12:35;3.60;;;1.23;;
54937;SDS011;52756;52.826;6.214;2022-08-06T13:15:01;3.47;;;1.67;;
54937;SDS011;52756;52.826;6.214;2022-08-06T13:17:36;1.75;;;1.13;;
54937;SDS011;52756;52.826;6.214;2022-08-06T13:20:02;1.50;;;1.10;;
54937;SDS011;52756;52.826;6.214;2022-08-06T13:22:28;3.25;;;1.23;;
54937;SDS011;52756;52.826;6.214;2022-08-06T13:25:10;1.83;;;1.27;;
54937;SDS011;52756;52.826;6.214;2022-08-06T13:27:37;3.03;;;1.40;;
54937;SDS011;52756;52.826;6.214;2022-08-06T13:30:07;2.03;;;1.42;;
54937;SDS011;52756;52.826;6.214;2022-08-06T13:32:35;1.52;;;0.98;;
54937;SDS011;52756;52.826;6.214;2022-08-06T13:35:02;2.92;;;1.40;;
54937;SDS011;52756;52.826;6.214;2022-08-06T13:37:50;2.35;;;1.25;;
54937;SDS011;52756;52.826;6.214;2022-08-06T13:40:17;2.33;;;1.10;;
54937;SDS011;52756;52.826;6.214;2022-08-06T13:42:47;2.30;;;1.48;;
54937;SDS011;52756;52.826;6.214;2022-08-06T13:45:17;2.67;;;1.40;;
54937;SDS011;52756;52.826;6.214;2022-08-06T13:47:47;2.13;;;1.05;;
54937;SDS011;52756;52.826;6.214;2022-08-06T13:50:20;1.67;;;1.38;;
54937;SDS011;52756;52.826;6.214;2022-08-06T13:52:46;1.77;;;1.08;;
54937;SDS011;52756;52.826;6.214;2022-08-06T13:55:11;2.90;;;1.38;;
54937;SDS011;52756;52.826;6.214;2022-08-06T13:57:37;1.80;;;1.08;;
54937;SDS011;52756;52.826;6.214;2022-08-06T14:00:04;1.83;;;1.20;;
54937;SDS011;52756;52.826;6.214;2022-08-06T14:02:34;2.03;;;1.20;;
54937;SDS011;52756;52.826;6.214;2022-08-06T14:05:00;1.85;;;1.20;;
54937;SDS011;52756;52.826;6.214;2022-08-06T14:07:26;2.78;;;1.40;;
54937;SDS011;52756;52.826;6.214;2022-08-06T14:09:51;3.03;;;1.30;;
54937;SDS011;52756;52.826;6.214;2022-08-06T14:12:17;1.55;;;1.13;;
54937;SDS011;52756;52.826;6.214;2022-08-06T14:14:43;1.75;;;1.30;;
54937;SDS011;52756;52.826;6.214;2022-08-06T14:17:08;1.77;;;1.15;;
54937;SDS011;52756;52.826;6.214;2022-08-06T14:19:34;2.22;;;1.30;;
54937;SDS011;52756;52.826;6.214;2022-08-06T14:22:00;1.80;;;1.30;;
54937;SDS011;52756;52.826;6.214;2022-08-06T14:24:25;1.67;;;1.20;;
54937;SDS011;52756;52.826;6.214;2022-08-06T14:26:51;2.10;;;1.30;;
54937;SDS011;52756;52.826;6.214;2022-08-06T14:29:17;1.58;;;1.30;;
54937;SDS011;52756;52.826;6.214;2022-08-06T14:31:42;2.22;;;1.30;;
54937;SDS011;52756;52.826;6.214;2022-08-06T14:34:08;2.20;;;1.50;;
54937;SDS011;52756;52.826;6.214;2022-08-06T14:36:34;2.95;;;1.35;;
54937;SDS011;52756;52.826;6.214;2022-08-06T14:39:00;2.03;;;1.35;;
54937;SDS011;52756;52.826;6.214;2022-08-06T14:41:25;2.28;;;1.50;;
54937;SDS011;52756;52.826;6.214;2022-08-06T14:44:10;2.00;;;1.48;;
54937;SDS011;52756;52.826;6.214;2022-08-06T14:46:54;2.67;;;1.50;;
54937;SDS011;52756;52.826;6.214;2022-08-06T14:49:20;2.78;;;1.38;;
54937;SDS011;52756;52.826;6.214;2022-08-06T14:51:46;2.75;;;1.50;;
54937;SDS011;52756;52.826;6.214;2022-08-06T14:54:12;3.20;;;1.60;;
54937;SDS011;52756;52.826;6.214;2022-08-06T14:56:38;1.60;;;1.30;;
54937;SDS011;52756;52.826;6.214;2022-08-06T14:59:04;3.47;;;1.70;;
54937;SDS011;52756;52.826;6.214;2022-08-06T15:01:30;2.38;;;1.73;;
54937;SDS011;52756;52.826;6.214;2022-08-06T15:03:55;2.20;;;1.60;;
54937;SDS011;52756;52.826;6.214;2022-08-06T15:06:21;3.08;;;1.70;;
54937;SDS011;52756;52.826;6.214;2022-08-06T15:08:47;3.00;;;1.67;;
54937;SDS011;52756;52.826;6.214;2022-08-06T15:11:12;2.00;;;1.40;;
54937;SDS011;52756;52.826;6.214;2022-08-06T15:13:38;2.88;;;1.90;;
54937;SDS011;52756;52.826;6.214;2022-08-06T15:16:04;4.93;;;1.77;;
54937;SDS011;52756;52.826;6.214;2022-08-06T15:18:30;2.75;;;1.60;;
54937;SDS011;52756;52.826;6.214;2022-08-06T15:20:56;2.25;;;1.80;;
54937;SDS011;52756;52.826;6.214;2022-08-06T15:23:22;3.60;;;2.08;;
54937;SDS011;52756;52.826;6.214;2022-08-06T15:25:47;3.33;;;1.90;;
54937;SDS011;52756;52.826;6.214;2022-08-06T15:28:13;2.30;;;1.55;;
54937;SDS011;52756;52.826;6.214;2022-08-06T15:30:41;2.55;;;1.92;;
54937;SDS011;52756;52.826;6.214;2022-08-06T15:33:06;2.38;;;1.75;;
54937;SDS011;52756;52.826;6.214;2022-08-06T15:35:32;2.05;;;1.50;;
54937;SDS011;52756;52.826;6.214;2022-08-06T15:37:58;2.78;;;1.70;;
54937;SDS011;52756;52.826;6.214;2022-08-06T15:40:24;2.22;;;1.52;;
54937;SDS011;52756;52.826;6.214;2022-08-06T15:42:49;2.08;;;1.70;;
54937;SDS011;52756;52.826;6.214;2022-08-06T15:45:15;2.72;;;1.77;;
54937;SDS011;52756;52.826;6.214;2022-08-06T15:47:41;2.53;;;1.85;;
54937;SDS011;52756;52.826;6.214;2022-08-06T15:50:07;2.70;;;1.70;;
54937;SDS011;52756;52.826;6.214;2022-08-06T15:52:33;3.13;;;1.70;;
54937;SDS011;52756;52.826;6.214;2022-08-06T15:55:03;2.47;;;1.60;;
54937;SDS011;52756;52.826;6.214;2022-08-06T15:57:29;2.85;;;1.70;;
54937;SDS011;52756;52.826;6.214;2022-08-06T15:59:55;2.50;;;1.63;;
54937;SDS011;52756;52.826;6.214;2022-08-06T16:02:21;2.15;;;1.70;;
54937;SDS011;52756;52.826;6.214;2022-08-06T16:04:46;3.50;;;1.65;;
54937;SDS011;52756;52.826;6.214;2022-08-06T16:07:13;2.60;;;1.70;;
54937;SDS011;52756;52.826;6.214;2022-08-06T16:09:38;2.88;;;2.05;;